Time;durP1;ratioP1;P1;durP2;ratioP2;P2;SDS_P1;SDS_P2;PMS_P1;PMS_P2;Temp;Humidity;BMP_temperature;BMP_pressure;BME280_temperature;BME280_humidity;BME280_pressure;Samples;Min_cycle;Max_cycle;Signal;HPM_P1;HPM_P2
2021/12/05 00:21:40;;;;;;;10.05;1.80;;;16.50;99.90;;;;;;4985248;28;20598;-63
2021/12/05 00:23:58;;;;;;;10.97;2.50;;;16.30;99.90;;;;;;4989745;28;20034;-64
2021/12/05 00:26:28;;;;;;;6.43;1.80;;;16.40;99.90;;;;;;4996439;28;20030;-63
2021/12/05 00:29:08;;;;;;;6.70;2.03;;;16.50;99.90;;;;;;4996343;28;20037;-64
2021/12/05 00:45:38;;;;;;;9.40;2.00;;;16.80;99.90;;;;;;4992443;28;20018;-64
2021/12/05 00:59:12;;;;;;;8.98;1.73;;;17.30;99.90;;;;;;4985636;28;20029;-65
2021/12/05 01:07:26;;;;;;;9.27;1.08;;;17.10;99.90;;;;;;4994337;28;20114;-64
2021/12/05 01:13:46;;;;;;;;;;;17.20;99.90;;;;;;4985157;28;20065;-63
2021/12/05 01:15:35;;;;;;;7.05;1.98;;;17.20;99.90;;;;;;4993777;28;19918;-63
2021/12/05 01:18:14;;;;;;;8.65;2.22;;;17.30;99.90;;;;;;4995963;28;20472;-65
2021/12/05 01:20:46;;;;;;;9.48;1.63;;;17.60;99.90;;;;;;4994811;28;20539;-63
2021/12/05 01:26:16;;;;;;;9.05;1.35;;;18.10;99.90;;;;;;4995844;28;20026;-62
2021/12/05 01:53:47;;;;;;;9.40;1.70;;;17.00;99.90;;;;;;4994117;28;20053;-65
2021/12/05 01:58:59;;;;;;;11.75;1.50;;;16.80;99.90;;;;;;4993912;28;20037;-61
2021/12/05 02:15:27;;;;;;;17.08;2.15;;;17.00;99.90;;;;;;4994076;28;20088;-64
2021/12/05 02:35:17;;;;;;;6.97;1.73;;;17.30;99.90;;;;;;4987233;28;20037;-63
2021/12/05 02:43:32;;;;;;;10.48;1.60;;;17.70;99.90;;;;;;4988427;28;20049;-63
2021/12/05 02:46:03;;;;;;;4.75;1.23;;;17.80;99.90;;;;;;4989379;28;20096;-63
2021/12/05 02:48:34;;;;;;;5.70;1.95;;;17.90;99.90;;;;;;4993637;28;20029;-62
2021/12/05 02:51:11;;;;;;;11.05;1.90;;;17.80;99.90;;;;;;4993519;28;20443;-62
2021/12/05 02:54:23;;;;;;;5.95;1.33;;;17.60;99.90;;;;;;4984282;28;20412;-64
2021/12/05 02:56:36;;;;;;;14.90;2.60;;;17.70;99.90;;;;;;4990718;28;20439;-61
2021/12/05 02:59:18;;;;;;;9.38;1.38;;;17.60;99.90;;;;;;4992514;28;20039;-61
2021/12/05 03:01:51;;;;;;;8.35;1.65;;;17.60;99.90;;;;;;4984335;28;20054;-62
2021/12/05 03:04:20;;;;;;;8.55;1.90;;;17.40;99.90;;;;;;4992063;28;20105;-65
2021/12/05 03:06:52;;;;;;;13.32;2.08;;;17.30;99.90;;;;;;4993623;28;20518;-64
2021/12/05 03:09:21;;;;;;;8.50;2.17;;;17.00;99.90;;;;;;4990630;28;20027;-64
2021/12/05 03:11:51;;;;;;;14.35;3.22;;;17.00;99.90;;;;;;4993333;28;20066;-63
2021/12/05 03:14:19;;;;;;;10.77;2.13;;;16.90;99.90;;;;;;4992501;28;20092;-63
2021/12/05 03:16:47;;;;;;;10.10;1.38;;;16.90;99.90;;;;;;4993478;28;20022;-63
2021/12/05 03:19:16;;;;;;;13.55;2.03;;;16.90;99.90;;;;;;4984608;28;20535;-63
2021/12/05 03:21:46;;;;;;;8.65;1.85;;;17.00;99.90;;;;;;4983650;28;20046;-65
2021/12/05 03:24:16;;;;;;;9.30;1.88;;;17.10;99.90;;;;;;4988118;28;20022;-65
2021/12/05 03:26:47;;;;;;;8.07;2.10;;;17.00;99.90;;;;;;4993386;28;20027;-63
2021/12/05 03:29:17;;;;;;;11.23;1.88;;;17.00;99.90;;;;;;4990495;28;20075;-63
2021/12/05 03:31:45;;;;;;;9.15;1.63;;;17.00;99.90;;;;;;4991429;28;20030;-63
2021/12/05 03:34:16;;;;;;;11.18;2.45;;;17.00;99.90;;;;;;4992794;28;20024;-62
2021/12/05 03:36:47;;;;;;;5.65;1.50;;;17.10;99.90;;;;;;4991589;28;20033;-65
2021/12/05 03:39:15;;;;;;;10.77;1.60;;;16.90;99.90;;;;;;4992193;28;20025;-65
2021/12/05 03:41:43;;;;;;;7.97;1.60;;;16.90;99.90;;;;;;4990967;28;20475;-63
2021/12/05 03:44:13;;;;;;;7.80;1.35;;;16.70;99.90;;;;;;4994050;28;20471;-63
2021/12/05 03:46:41;;;;;;;3.33;1.38;;;16.70;99.90;;;;;;4994069;28;20057;-63
2021/12/05 03:49:12;;;;;;;12.70;2.35;;;16.70;99.90;;;;;;4996534;28;20434;-64
2021/12/05 03:51:46;;;;;;;12.55;2.13;;;16.80;99.90;;;;;;4996200;28;20066;-64
2021/12/05 03:54:14;;;;;;;15.35;1.60;;;16.90;99.90;;;;;;4996984;28;20084;-65
2021/12/05 03:56:42;;;;;;;12.85;2.00;;;16.90;99.90;;;;;;4997017;28;20034;-65
2021/12/05 03:59:12;;;;;;;5.35;1.27;;;17.00;99.90;;;;;;4996876;28;20026;-64
2021/12/05 04:01:40;;;;;;;6.20;2.10;;;17.00;99.90;;;;;;4996368;28;20042;-64
2021/12/05 04:04:10;;;;;;;12.18;2.25;;;16.90;99.90;;;;;;4996614;28;20421;-64
2021/12/05 04:06:39;;;;;;;6.55;1.73;;;16.90;99.90;;;;;;4994681;28;20029;-64
2021/12/05 04:09:09;;;;;;;12.10;1.80;;;17.00;99.90;;;;;;4996780;28;20022;-63
2021/12/05 04:11:43;;;;;;;17.08;2.40;;;17.10;99.90;;;;;;4994432;28;20091;-61
2021/12/05 04:14:13;;;;;;;9.20;1.52;;;17.10;99.90;;;;;;4996761;28;20038;-62
2021/12/05 04:16:42;;;;;;;10.90;1.40;;;17.00;99.90;;;;;;4996737;28;20379;-62
2021/12/05 04:19:10;;;;;;;7.13;1.92;;;17.00;99.90;;;;;;4996506;28;20038;-63
2021/12/05 04:21:39;;;;;;;5.90;1.45;;;17.00;99.90;;;;;;4996170;28;20026;-64
2021/12/05 04:24:10;;;;;;;7.15;1.88;;;16.90;99.90;;;;;;4996684;28;20084;-63
2021/12/05 04:26:39;;;;;;;11.35;1.10;;;17.00;99.90;;;;;;4994518;28;20010;-62
2021/12/05 04:29:08;;;;;;;13.90;1.27;;;17.00;99.90;;;;;;4995931;28;20026;-62
2021/12/05 04:31:39;;;;;;;6.85;1.25;;;16.90;99.90;;;;;;4993394;28;20061;-63
2021/12/05 04:34:07;;;;;;;5.10;1.35;;;16.80;99.90;;;;;;4995956;28;20019;-63
2021/12/05 04:36:35;;;;;;;7.93;1.40;;;16.80;99.90;;;;;;4995941;28;20046;-64
2021/12/05 04:39:05;;;;;;;6.03;1.55;;;16.80;99.90;;;;;;4995849;28;20026;-62
2021/12/05 04:41:33;;;;;;;17.73;2.20;;;16.80;99.90;;;;;;4995451;28;20029;-62
2021/12/05 04:44:02;;;;;;;10.68;1.40;;;16.90;99.90;;;;;;4995608;28;20022;-63
2021/12/05 04:46:31;;;;;;;4.80;1.52;;;16.90;99.90;;;;;;4995485;28;20049;-63
2021/12/05 04:48:59;;;;;;;7.45;1.80;;;16.90;99.90;;;;;;4995533;28;20101;-64
2021/12/05 04:51:33;;;;;;;11.98;2.03;;;16.80;99.90;;;;;;4995786;28;20050;-65
2021/12/05 04:54:03;;;;;;;8.68;1.40;;;16.80;99.90;;;;;;4991575;28;20502;-63
2021/12/05 04:56:32;;;;;;;12.85;1.40;;;16.80;99.90;;;;;;4994450;28;20022;-63
2021/12/05 04:59:01;;;;;;;8.95;1.80;;;16.80;99.90;;;;;;4995917;28;20018;-63
2021/12/05 05:01:30;;;;;;;12.88;2.00;;;16.80;99.90;;;;;;4995639;28;20503;-63
2021/12/05 05:03:59;;;;;;;11.80;1.92;;;16.80;99.90;;;;;;4995894;28;20379;-64
2021/12/05 05:06:27;;;;;;;7.72;1.40;;;16.80;99.90;;;;;;4995458;28;20022;-65
2021/12/05 05:08:56;;;;;;;12.15;1.23;;;16.80;99.90;;;;;;4992572;28;20078;-65
2021/12/05 05:11:26;;;;;;;12.43;2.03;;;16.90;99.90;;;;;;4992057;28;20132;-63
2021/12/05 05:13:54;;;;;;;12.65;1.17;;;16.90;99.90;;;;;;4994105;28;20030;-64
2021/12/05 05:16:24;;;;;;;4.70;1.60;;;16.90;99.90;;;;;;4975310;28;20037;-64
2021/12/05 05:18:58;;;;;;;4.90;1.45;;;16.90;99.90;;;;;;4975917;28;20472;-63
2021/12/05 05:21:45;;;;;;;5.30;1.25;;;16.80;99.90;;;;;;4976323;28;20030;-63
2021/12/05 05:48:47;;;;;;;8.13;1.02;;;16.70;99.90;;;;;;4995293;28;20019;-64
2021/12/05 05:50:51;;;;;;;7.82;1.73;;;16.60;99.90;;;;;;4997218;28;20038;-64
2021/12/05 05:53:18;;;;;;;8.48;1.48;;;16.60;99.90;;;;;;4978897;28;20444;-64
2021/12/05 05:55:48;;;;;;;9.98;1.67;;;16.70;99.90;;;;;;4975558;28;20046;-64
2021/12/05 05:58:19;;;;;;;9.70;1.30;;;16.60;99.90;;;;;;4975786;28;20039;-64
2021/12/05 06:01:03;;;;;;;7.32;1.65;;;16.70;99.90;;;;;;4979428;28;20042;-65
2021/12/05 06:03:32;;;;;;;9.15;1.95;;;16.70;99.90;;;;;;4992702;28;20125;-64
2021/12/05 06:06:06;;;;;;;11.57;2.05;;;16.60;99.90;;;;;;4992679;28;20028;-67
2021/12/05 06:08:35;;;;;;;12.82;1.52;;;16.50;99.90;;;;;;4993395;28;20022;-65
2021/12/05 06:11:09;;;;;;;7.10;1.13;;;16.60;99.90;;;;;;4991559;28;20034;-65
2021/12/05 06:13:39;;;;;;;8.05;1.10;;;16.60;99.90;;;;;;4984139;28;20102;-64
2021/12/05 06:16:08;;;;;;;10.60;1.33;;;16.70;99.90;;;;;;4993063;28;20398;-64
2021/12/05 06:18:36;;;;;;;8.63;1.58;;;16.70;99.90;;;;;;4994112;28;20391;-67
2021/12/05 06:21:05;;;;;;;6.80;1.70;;;16.70;99.90;;;;;;4993961;28;20101;-64
2021/12/05 06:23:33;;;;;;;3.33;1.13;;;16.60;99.90;;;;;;4994132;28;20125;-65
2021/12/05 06:26:02;;;;;;;7.72;1.40;;;16.60;99.90;;;;;;4993625;28;20022;-65
2021/12/05 06:28:40;;;;;;;7.32;2.50;;;16.50;99.90;;;;;;4993982;28;20105;-64
2021/12/05 06:31:21;;;;;;;6.03;1.45;;;16.50;99.90;;;;;;4991158;28;20027;-64
2021/12/05 06:39:39;;;;;;;9.63;1.33;;;16.60;99.90;;;;;;4993150;28;19960;-64
2021/12/05 06:47:25;;;;;;;11.05;1.52;;;16.50;99.90;;;;;;4993048;28;20085;-64
2021/12/05 06:49:55;;;;;;;4.72;1.48;;;16.60;99.90;;;;;;4993600;28;20018;-64
2021/12/05 06:52:23;;;;;;;9.18;1.20;;;16.60;99.90;;;;;;4993530;28;20085;-64
2021/12/05 06:54:51;;;;;;;5.60;1.38;;;16.60;99.90;;;;;;4992928;28;20080;-64
2021/12/05 06:57:19;;;;;;;11.23;1.35;;;16.60;99.90;;;;;;4991685;28;20062;-64
2021/12/05 06:59:49;;;;;;;6.45;1.17;;;16.60;99.90;;;;;;4993504;28;20026;-63
2021/12/05 07:02:19;;;;;;;7.03;1.30;;;16.70;99.90;;;;;;4989746;28;20050;-62
2021/12/05 07:07:36;;;;;;;6.95;1.85;;;16.80;99.90;;;;;;4992837;28;20030;-63
2021/12/05 07:10:07;;;;;;;8.88;1.27;;;16.80;99.90;;;;;;4991505;28;20045;-63
2021/12/05 07:15:44;;;;;;;6.20;1.50;;;16.70;99.90;;;;;;4993100;28;20029;-63
2021/12/05 07:26:50;;;;;;;5.18;1.52;;;16.50;99.90;;;;;;4994159;28;20022;-63
2021/12/05 07:42:41;;;;;;;11.38;1.25;;;16.60;99.90;;;;;;4990046;28;20108;-64
2021/12/05 07:45:14;;;;;;;6.97;1.63;;;16.60;99.90;;;;;;4990957;28;20023;-63
2021/12/05 07:47:46;;;;;;;6.53;1.40;;;16.50;99.90;;;;;;4992240;28;20432;-63
2021/12/05 07:50:15;;;;;;;15.20;1.42;;;16.40;99.90;;;;;;4989638;28;20054;-66
2021/12/05 07:52:49;;;;;;;8.25;1.25;;;16.40;99.90;;;;;;4992546;28;20050;-63
2021/12/05 07:55:23;;;;;;;13.73;1.80;;;16.40;99.90;;;;;;4990462;28;20050;-63
2021/12/05 08:00:36;;;;;;;8.70;1.55;;;16.40;99.90;;;;;;4991873;28;20019;-63
2021/12/05 08:16:55;;;;;;;13.68;2.10;;;16.20;99.90;;;;;;4990061;28;20109;-65
2021/12/05 08:19:22;;;;;;;11.57;1.65;;;16.30;99.90;;;;;;4992203;28;20106;-64
2021/12/05 08:21:59;;;;;;;8.15;1.77;;;16.30;99.90;;;;;;4991939;28;20479;-64
2021/12/05 08:24:32;;;;;;;2.97;1.52;;;16.30;99.90;;;;;;4991883;28;20080;-64
2021/12/05 08:27:02;;;;;;;6.43;0.95;;;16.20;99.90;;;;;;4992149;28;20034;-65
2021/12/05 08:29:44;;;;;;;6.15;1.30;;;16.30;99.90;;;;;;4994178;28;20133;-64
2021/12/05 08:32:26;;;;;;;6.60;0.85;;;16.30;99.90;;;;;;4998375;28;20030;-65
2021/12/05 08:40:35;;;;;;;8.20;0.93;;;16.20;99.90;;;;;;4994477;28;20038;-64
2021/12/05 09:29:39;;;;;;;9.02;1.83;;;16.00;99.90;;;;;;4992596;28;20103;-64
2021/12/05 10:03:36;;;;;;;5.95;1.63;;;15.80;99.90;;;;;;4991206;28;20034;-63
2021/12/05 10:17:47;;;;;;;8.10;1.35;;;15.80;99.90;;;;;;4993227;28;20014;-62
2021/12/05 10:37:17;;;;;;;9.45;1.33;;;15.90;99.90;;;;;;4991767;28;20026;-63
2021/12/05 10:39:46;;;;;;;7.95;1.88;;;15.80;99.90;;;;;;4994756;28;20090;-63
2021/12/05 10:42:40;;;;;;;5.75;1.25;;;15.90;99.90;;;;;;4992614;28;20026;-63
2021/12/05 10:45:31;;;;;;;7.00;1.27;;;15.90;99.90;;;;;;4992128;28;20053;-64
2021/12/05 10:48:24;;;;;;;7.88;1.15;;;15.90;99.90;;;;;;4992041;28;20138;-61
2021/12/05 10:51:05;;;;;;;15.32;2.10;;;15.90;99.90;;;;;;4988778;28;20038;-61
2021/12/05 10:53:39;;;;;;;3.63;0.98;;;15.90;99.90;;;;;;4992090;28;20068;-63
2021/12/05 10:56:26;;;;;;;11.60;1.75;;;15.90;99.90;;;;;;4992001;28;20022;-62
2021/12/05 10:59:02;;;;;;;11.68;1.48;;;15.90;99.90;;;;;;4991207;28;20029;-63
2021/12/05 11:01:34;;;;;;;;;;;15.90;99.90;;;;;;4992103;28;20046;-63
2021/12/05 11:04:04;;;;;;;12.60;2.25;;;15.80;99.90;;;;;;4991902;28;19909;-62
2021/12/05 11:06:38;;;;;;;5.38;1.10;;;15.80;99.90;;;;;;4991437;28;20037;-63
2021/12/05 11:09:06;;;;;;;6.38;1.08;;;15.80;99.90;;;;;;4991775;28;20034;-63
2021/12/05 11:11:35;;;;;;;11.40;1.60;;;15.80;99.90;;;;;;4991711;28;20041;-63
2021/12/05 11:14:08;;;;;;;4.43;1.48;;;15.80;99.90;;;;;;4991748;28;20014;-63
2021/12/05 11:16:40;;;;;;;8.07;1.40;;;15.80;99.90;;;;;;4991621;28;20038;-62
2021/12/05 11:19:37;;;;;;;12.55;1.60;;;15.80;99.90;;;;;;4991028;28;20422;-62
2021/12/05 11:22:33;;;;;;;6.28;1.67;;;15.80;99.90;;;;;;4991178;28;20030;-63
2021/12/05 11:25:09;;;;;;;12.45;1.85;;;15.80;99.90;;;;;;4991077;28;20034;-64
2021/12/05 11:27:42;;;;;;;10.05;1.50;;;15.80;99.90;;;;;;4982266;28;20480;-64
2021/12/05 11:30:16;;;;;;;14.70;2.20;;;15.90;99.90;;;;;;4991168;28;20018;-63
2021/12/05 11:32:58;;;;;;;7.60;1.75;;;15.90;99.90;;;;;;4990858;28;20042;-63
2021/12/05 11:35:35;;;;;;;6.40;1.75;;;15.80;99.90;;;;;;4995316;28;20022;-63
2021/12/05 11:38:28;;;;;;;5.60;1.10;;;15.80;99.90;;;;;;4993429;28;20040;-63
2021/12/05 11:41:16;;;;;;;3.20;0.98;;;15.80;99.90;;;;;;4992959;28;20439;-64
2021/12/05 11:43:51;;;;;;;11.25;1.50;;;15.80;99.90;;;;;;4992669;28;20033;-64
2021/12/05 11:46:44;;;;;;;4.88;1.08;;;15.80;99.90;;;;;;4992060;28;20018;-62
2021/12/05 11:49:17;;;;;;;7.80;1.42;;;15.80;99.90;;;;;;4993023;28;20041;-63
2021/12/05 11:51:45;;;;;;;5.22;1.15;;;15.80;99.90;;;;;;4993247;28;20030;-64
2021/12/05 11:54:18;;;;;;;6.22;1.00;;;15.80;99.90;;;;;;4993318;28;20030;-62
2021/12/05 11:57:29;;;;;;;9.23;1.75;;;15.80;99.90;;;;;;4993229;28;20050;-64
2021/12/05 12:00:09;;;;;;;8.35;1.50;;;15.70;99.90;;;;;;4992999;28;20026;-63
2021/12/05 12:02:40;;;;;;;3.40;1.15;;;15.70;99.90;;;;;;4991371;28;20051;-64
2021/12/05 12:05:13;;;;;;;4.57;2.08;;;15.70;99.90;;;;;;4994455;28;20029;-64
2021/12/05 12:07:50;;;;;;;6.70;1.30;;;15.70;99.90;;;;;;4996736;28;20030;-63
2021/12/05 12:10:17;;;;;;;10.43;1.17;;;15.60;99.90;;;;;;4995435;28;20023;-64
2021/12/05 12:13:04;;;;;;;5.95;1.17;;;15.60;99.90;;;;;;4997013;28;20049;-64
2021/12/05 12:15:33;;;;;;;25.85;2.33;;;15.60;99.90;;;;;;4997529;28;20468;-64
2021/12/05 12:18:16;;;;;;;8.65;1.63;;;15.60;99.90;;;;;;4997353;28;20104;-64
2021/12/05 12:20:46;;;;;;;5.50;1.17;;;15.60;99.90;;;;;;4997092;28;20116;-63
2021/12/05 12:23:15;;;;;;;8.77;1.48;;;15.50;99.90;;;;;;4997114;28;20027;-64
2021/12/05 12:25:48;;;;;;;6.35;1.23;;;15.50;99.90;;;;;;4997072;28;20029;-63
2021/12/05 12:28:17;;;;;;;10.63;1.55;;;15.40;99.90;;;;;;4997242;28;20113;-63
2021/12/05 12:30:52;;;;;;;8.20;2.00;;;15.40;99.90;;;;;;4996936;28;20022;-63
2021/12/05 12:33:34;;;;;;;8.18;1.80;;;15.40;99.90;;;;;;4997197;28;20041;-63
2021/12/05 12:36:03;;;;;;;5.63;0.95;;;15.40;99.90;;;;;;4996903;28;20037;-64
2021/12/05 12:38:40;;;;;;;4.97;1.38;;;15.40;99.90;;;;;;4996964;28;20030;-64
2021/12/05 12:41:19;;;;;;;5.25;0.90;;;15.40;99.90;;;;;;4996802;28;20022;-63
2021/12/05 12:43:52;;;;;;;8.65;2.13;;;15.40;99.90;;;;;;4996763;28;20030;-64
2021/12/05 12:46:31;;;;;;;6.95;1.52;;;15.40;99.90;;;;;;4996926;28;20498;-63
2021/12/05 12:49:17;;;;;;;4.35;1.45;;;15.40;99.90;;;;;;4996640;28;20027;-63
2021/12/05 12:52:02;;;;;;;2.92;0.75;;;15.40;99.90;;;;;;4996425;28;20078;-63
2021/12/05 12:54:57;;;;;;;15.15;1.17;;;15.40;99.90;;;;;;4996612;28;20026;-63
2021/12/05 12:57:31;;;;;;;7.77;1.33;;;15.40;99.90;;;;;;4996773;28;20614;-63
2021/12/05 13:00:16;;;;;;;4.13;0.95;;;15.30;99.90;;;;;;4996320;28;20029;-63
2021/12/05 13:11:08;;;;;;;7.25;1.08;;;15.20;99.90;;;;;;4996737;28;20085;-63
2021/12/05 13:13:39;;;;;;;6.30;1.38;;;15.20;99.90;;;;;;4995069;28;20471;-62
2021/12/05 13:16:29;;;;;;;4.88;1.00;;;15.20;99.90;;;;;;4995596;28;20456;-62
2021/12/05 13:19:10;;;;;;;3.50;0.98;;;15.20;99.90;;;;;;4996041;28;20026;-63
2021/12/05 13:21:42;;;;;;;6.53;1.17;;;15.20;99.90;;;;;;4996090;28;20044;-63
2021/12/05 13:24:25;;;;;;;8.07;1.52;;;15.20;99.90;;;;;;4993919;28;20357;-64
2021/12/05 13:27:04;;;;;;;5.60;1.50;;;15.10;99.90;;;;;;4996082;28;20475;-63
2021/12/05 13:29:49;;;;;;;5.45;0.95;;;15.10;99.90;;;;;;4994878;28;20068;-63
2021/12/05 13:32:29;;;;;;;4.35;0.80;;;15.10;99.90;;;;;;4995941;28;20080;-64
2021/12/05 13:35:00;;;;;;;7.40;1.95;;;15.00;99.90;;;;;;4996003;28;20033;-63
2021/12/05 13:37:30;;;;;;;6.18;1.48;;;15.00;99.90;;;;;;4995932;28;20019;-63
2021/12/05 13:40:15;;;;;;;6.70;0.98;;;14.90;99.90;;;;;;4995641;28;20050;-63
2021/12/05 13:42:54;;;;;;;4.95;1.65;;;14.80;99.90;;;;;;4995696;28;20023;-62
2021/12/05 13:45:28;;;;;;;6.18;1.20;;;14.80;99.90;;;;;;4995775;28;20027;-63
2021/12/05 13:47:56;;;;;;;13.07;1.85;;;14.70;99.90;;;;;;4995733;28;20030;-62
2021/12/05 13:50:30;;;;;;;10.35;2.20;;;14.80;99.90;;;;;;4995589;28;20030;-63
2021/12/05 13:53:04;;;;;;;6.00;1.58;;;14.80;99.90;;;;;;4995551;28;20038;-63
2021/12/05 13:56:10;;;;;;;6.18;1.15;;;14.80;99.90;;;;;;4995482;28;20480;-62
2021/12/05 13:58:45;;;;;;;5.80;1.60;;;14.90;99.90;;;;;;4995445;28;20034;-63
2021/12/05 14:01:12;;;;;;;;;;;14.90;99.90;;;;;;4995464;28;20062;-63
2021/12/05 14:03:50;;;;;;;11.70;1.52;;;14.90;99.90;;;;;;4995383;28;19959;-63
2021/12/05 14:06:42;;;;;;;6.07;1.80;;;14.90;99.90;;;;;;4995449;28;20371;-63
2021/12/05 14:09:11;;;;;;;5.45;1.63;;;15.00;99.90;;;;;;4995202;28;20026;-63
2021/12/05 14:12:08;;;;;;;6.18;0.90;;;15.00;99.90;;;;;;4995147;28;20034;-63
2021/12/05 14:14:48;;;;;;;5.13;1.10;;;15.00;99.90;;;;;;4995677;28;20069;-63
2021/12/05 14:17:22;;;;;;;13.40;1.80;;;15.00;99.90;;;;;;4995083;28;20419;-63
2021/12/05 14:19:52;;;;;;;15.98;2.20;;;15.00;99.90;;;;;;4994930;28;20041;-63
2021/12/05 14:22:22;;;;;;;6.82;1.10;;;15.00;99.90;;;;;;4995001;28;20101;-63
2021/12/05 14:24:55;;;;;;;3.55;0.85;;;15.00;99.90;;;;;;4995027;28;20403;-63
2021/12/05 14:27:27;;;;;;;6.13;1.50;;;14.90;99.90;;;;;;4994738;28;20046;-63
2021/12/05 14:29:56;;;;;;;4.50;1.70;;;14.90;99.90;;;;;;4994817;28;20100;-63
2021/12/05 14:32:35;;;;;;;6.90;1.50;;;14.90;99.90;;;;;;4994769;28;20165;-63
2021/12/05 14:35:14;;;;;;;6.68;1.42;;;14.90;99.90;;;;;;4994780;28;20102;-64
2021/12/05 14:37:44;;;;;;;10.70;1.00;;;14.90;99.90;;;;;;4994891;28;20041;-64
2021/12/05 14:40:17;;;;;;;4.20;0.95;;;14.90;99.90;;;;;;4994947;28;20019;-63
2021/12/05 14:42:50;;;;;;;4.30;0.85;;;14.90;99.90;;;;;;4994636;28;20081;-63
2021/12/05 14:45:21;;;;;;;3.30;0.75;;;14.90;99.90;;;;;;4994554;28;20146;-64
2021/12/05 14:47:51;;;;;;;11.45;2.08;;;15.00;99.90;;;;;;4994641;28;20061;-64
2021/12/05 14:50:24;;;;;;;6.88;1.70;;;14.90;99.90;;;;;;4994362;28;20031;-64
2021/12/05 14:52:55;;;;;;;14.27;1.70;;;15.00;99.90;;;;;;4994667;28;20026;-64
2021/12/05 14:55:24;;;;;;;6.70;1.00;;;14.90;99.90;;;;;;4994381;28;20026;-63
2021/12/05 14:57:56;;;;;;;5.65;1.60;;;14.90;99.90;;;;;;4994429;28;20033;-63
2021/12/05 15:00:34;;;;;;;4.88;1.70;;;15.00;99.90;;;;;;4994473;28;20022;-63
2021/12/05 15:03:03;;;;;;;6.70;1.48;;;14.90;99.90;;;;;;4994648;28;20090;-64
2021/12/05 15:05:31;;;;;;;14.70;1.52;;;14.90;99.90;;;;;;4994406;28;20364;-63
2021/12/05 15:08:16;;;;;;;10.10;1.70;;;14.90;99.90;;;;;;5009466;28;20930;-64
2021/12/05 15:10:46;;;;;;;11.27;1.30;;;14.90;99.90;;;;;;4994419;28;20026;-64
2021/12/05 15:13:17;;;;;;;9.73;1.08;;;14.90;99.90;;;;;;4994319;28;20060;-63
2021/12/05 15:15:45;;;;;;;7.90;1.20;;;14.90;99.90;;;;;;4994325;28;20026;-64
2021/12/05 15:18:28;;;;;;;7.18;1.20;;;14.90;99.90;;;;;;4994229;28;20027;-64
2021/12/05 15:20:57;;;;;;;7.78;1.23;;;14.90;99.90;;;;;;4994185;28;20049;-66
2021/12/05 15:23:41;;;;;;;9.35;1.42;;;14.80;99.90;;;;;;4997211;28;20117;-64
2021/12/05 15:26:09;;;;;;;11.10;1.95;;;14.80;99.90;;;;;;4994109;28;20030;-63
2021/12/05 15:28:37;;;;;;;11.82;1.40;;;14.80;99.90;;;;;;4994157;28;20037;-64
2021/12/05 15:31:06;;;;;;;6.15;1.20;;;14.80;99.90;;;;;;4993934;28;20027;-63
2021/12/05 15:33:34;;;;;;;5.93;1.48;;;14.90;99.90;;;;;;4994129;28;20065;-63
2021/12/05 15:36:03;;;;;;;7.70;1.95;;;14.90;99.90;;;;;;4993957;28;20026;-63
2021/12/05 15:38:32;;;;;;;8.45;1.90;;;14.90;99.90;;;;;;4993978;28;20038;-65
2021/12/05 15:41:06;;;;;;;11.30;1.73;;;14.90;99.90;;;;;;4996584;28;20493;-64
2021/12/05 15:43:38;;;;;;;4.07;0.98;;;14.80;99.90;;;;;;4998165;28;20026;-64
2021/12/05 15:46:11;;;;;;;6.78;2.30;;;14.80;99.90;;;;;;4998133;28;20105;-63
2021/12/05 15:48:39;;;;;;;6.93;1.55;;;14.80;99.90;;;;;;4997720;28;20483;-64
2021/12/05 15:51:13;;;;;;;11.38;1.38;;;14.80;99.90;;;;;;4997649;28;20042;-63
2021/12/05 15:53:42;;;;;;;4.70;0.93;;;14.80;99.90;;;;;;4997721;28;20034;-63
2021/12/05 15:56:16;;;;;;;8.00;1.10;;;14.80;99.90;;;;;;4997900;28;20069;-63
2021/12/05 15:58:58;;;;;;;10.70;1.23;;;14.80;99.90;;;;;;4997743;28;20026;-65
2021/12/05 16:01:27;;;;;;;8.70;1.25;;;14.80;99.90;;;;;;4997330;28;20073;-63
2021/12/05 16:04:18;;;;;;;10.38;1.58;;;14.80;99.90;;;;;;4997654;28;20031;-63
2021/12/05 16:06:46;;;;;;;6.22;1.00;;;14.80;99.90;;;;;;4997494;28;20026;-63
2021/12/05 16:09:16;;;;;;;6.95;0.90;;;14.80;99.90;;;;;;4997357;28;20031;-63
2021/12/05 16:11:45;;;;;;;8.25;2.22;;;14.80;99.90;;;;;;4997326;28;20034;-62
2021/12/05 16:14:12;;;;;;;7.82;1.27;;;14.80;99.90;;;;;;4997310;28;20365;-62
2021/12/05 16:16:40;;;;;;;8.45;1.60;;;14.80;99.90;;;;;;4997246;28;20057;-63
2021/12/05 16:19:13;;;;;;;3.75;1.45;;;14.80;99.90;;;;;;4997300;28;20023;-63
2021/12/05 16:21:41;;;;;;;5.18;0.90;;;14.80;99.90;;;;;;4997182;28;20031;-64
2021/12/05 16:24:13;;;;;;;6.43;1.17;;;14.80;99.90;;;;;;4997017;28;20034;-63
2021/12/05 16:26:43;;;;;;;5.95;1.40;;;14.80;99.90;;;;;;4997080;28;20034;-63
2021/12/05 16:29:18;;;;;;;8.98;1.55;;;14.90;99.90;;;;;;4997128;28;20399;-64
2021/12/05 16:31:53;;;;;;;4.97;1.20;;;14.80;99.90;;;;;;4997072;28;20223;-64
2021/12/05 16:34:27;;;;;;;3.53;1.15;;;14.90;99.90;;;;;;4997072;28;20360;-64
2021/12/05 16:36:58;;;;;;;7.80;1.45;;;14.90;99.90;;;;;;4996892;28;20026;-63
2021/12/05 16:39:45;;;;;;;3.90;1.15;;;14.90;99.90;;;;;;4997015;28;20383;-64
2021/12/05 16:42:16;;;;;;;5.80;1.17;;;14.80;99.90;;;;;;4996745;28;20030;-63
2021/12/05 16:44:50;;;;;;;8.77;1.92;;;14.80;99.90;;;;;;4996802;28;20034;-64
2021/12/05 16:47:20;;;;;;;6.40;1.73;;;14.70;99.90;;;;;;4996797;28;20023;-63
2021/12/05 16:49:51;;;;;;;8.50;2.00;;;14.70;99.90;;;;;;4996608;28;20041;-64
2021/12/05 16:52:25;;;;;;;11.13;2.42;;;14.70;99.90;;;;;;4996459;28;20110;-64
2021/12/05 16:54:58;;;;;;;11.38;1.50;;;14.70;99.90;;;;;;4996627;28;20034;-64
2021/12/05 16:57:39;;;;;;;7.85;1.38;;;14.60;99.90;;;;;;4996518;28;20019;-64
2021/12/05 17:00:17;;;;;;;8.75;1.48;;;14.60;99.90;;;;;;4996846;28;20038;-64
2021/12/05 17:02:51;;;;;;;9.32;1.20;;;14.60;99.90;;;;;;4996341;28;20046;-64
2021/12/05 17:05:36;;;;;;;9.18;1.35;;;14.60;99.90;;;;;;4996400;28;20484;-64
2021/12/05 17:08:21;;;;;;;6.65;1.20;;;14.60;99.90;;;;;;4996329;28;20092;-64
2021/12/05 17:10:52;;;;;;;8.20;2.08;;;14.60;99.90;;;;;;4996097;28;20034;-64
2021/12/05 17:13:27;;;;;;;6.07;1.15;;;14.60;99.90;;;;;;4996203;28;20046;-64
2021/12/05 17:15:58;;;;;;;8.23;1.10;;;14.50;99.90;;;;;;4996153;28;20058;-64
2021/12/05 17:18:47;;;;;;;7.75;1.60;;;14.50;99.90;;;;;;4996271;28;20034;-64
2021/12/05 17:21:19;;;;;;;6.97;2.15;;;14.50;99.90;;;;;;4996047;28;20054;-64
2021/12/05 17:23:55;;;;;;;2.90;1.10;;;14.50;99.90;;;;;;4996014;28;20022;-64
2021/12/05 17:26:25;;;;;;;6.60;1.85;;;14.40;99.90;;;;;;4996205;28;20081;-64
2021/12/05 17:29:12;;;;;;;5.20;1.55;;;14.40;99.90;;;;;;4995888;28;20486;-64
2021/12/05 17:31:44;;;;;;;5.72;1.63;;;14.40;99.90;;;;;;4995840;28;20034;-64
2021/12/05 17:34:33;;;;;;;6.85;1.45;;;14.40;99.90;;;;;;4995825;28;20056;-64
2021/12/05 17:37:07;;;;;;;4.75;1.25;;;14.40;99.90;;;;;;4995697;28;20026;-64
2021/12/05 17:39:38;;;;;;;5.15;1.08;;;14.40;99.90;;;;;;4995693;28;20026;-64
2021/12/05 17:42:19;;;;;;;8.10;1.75;;;14.40;99.90;;;;;;4995583;28;20034;-66
2021/12/05 17:44:49;;;;;;;5.72;1.50;;;14.40;99.90;;;;;;4995853;28;20145;-64
2021/12/05 17:47:18;;;;;;;7.18;1.17;;;14.40;99.90;;;;;;4995756;28;20033;-65
2021/12/05 17:49:49;;;;;;;5.13;1.33;;;14.40;99.90;;;;;;4995540;28;20031;-64
2021/12/05 17:52:18;;;;;;;6.75;1.55;;;14.40;99.90;;;;;;4995526;28;20510;-64
2021/12/05 17:55:03;;;;;;;12.15;2.40;;;14.30;99.90;;;;;;4995556;28;20030;-63
2021/12/05 17:57:53;;;;;;;4.78;1.52;;;14.30;99.90;;;;;;4995364;28;20487;-64
2021/12/05 18:02:59;;;;;;;7.00;1.75;;;14.30;99.90;;;;;;4994634;28;20454;-64
2021/12/05 18:05:38;;;;;;;8.57;1.92;;;14.30;99.90;;;;;;4995302;28;20101;-64
2021/12/05 18:08:13;;;;;;;8.82;2.10;;;14.30;99.90;;;;;;4995371;28;20039;-64
2021/12/05 18:10:47;;;;;;;6.72;1.30;;;14.30;99.90;;;;;;4995149;28;20038;-62
2021/12/05 18:13:21;;;;;;;4.65;1.50;;;14.30;99.90;;;;;;4995087;28;20392;-63
2021/12/05 18:15:57;;;;;;;8.93;1.42;;;14.30;99.90;;;;;;4995175;28;20030;-62
2021/12/05 18:18:29;;;;;;;10.35;1.75;;;14.20;99.90;;;;;;4995044;28;20113;-63
2021/12/05 18:20:59;;;;;;;8.18;2.10;;;14.20;99.90;;;;;;4995139;28;20033;-63
2021/12/05 18:23:27;;;;;;;5.55;1.80;;;14.20;99.90;;;;;;4994961;28;20015;-62
2021/12/05 18:25:56;;;;;;;10.13;1.42;;;14.30;99.90;;;;;;4994844;28;20034;-62
2021/12/05 18:28:24;;;;;;;4.43;1.30;;;14.30;99.90;;;;;;4994802;28;20026;-64
2021/12/05 18:30:52;;;;;;;8.93;1.52;;;14.30;99.90;;;;;;4994945;28;20110;-63
2021/12/05 18:33:21;;;;;;;7.85;2.00;;;14.30;99.90;;;;;;4994774;28;20030;-63
2021/12/05 18:35:49;;;;;;;5.18;1.00;;;14.30;99.90;;;;;;4994739;28;20026;-63
2021/12/05 18:38:21;;;;;;;12.48;1.60;;;14.40;99.90;;;;;;4994802;28;20030;-64
2021/12/05 18:40:55;;;;;;;6.53;1.42;;;14.40;99.90;;;;;;4994727;28;20027;-62
2021/12/05 18:43:27;;;;;;;9.65;1.40;;;14.40;99.90;;;;;;4994631;28;20034;-62